sensor_id;sensor_type;location;lat;lon;timestamp;pressure;altitude;pressure_sealevel;temperature;humidity
44349;BME280;30068;50.986;4.564;2023-02-28T01:49:40;103099.47;;;8.56;nan
44349;BME280;30068;50.986;4.564;2023-02-28T01:52:05;103093.03;;;12.14;nan
44349;BME280;30068;50.986;4.564;2023-02-28T01:54:31;103090.00;;;13.63;nan
44349;BME280;30068;50.986;4.564;2023-02-28T01:57:03;103088.50;;;14.17;nan
44349;BME280;30068;50.986;4.564;2023-02-28T01:59:33;103077.69;;;14.47;nan
44349;BME280;30068;50.986;4.564;2023-02-28T02:02:02;103078.38;;;14.65;nan
44349;BME280;30068;50.986;4.564;2023-02-28T02:04:32;103072.75;;;14.82;nan
44349;BME280;30068;50.986;4.564;2023-02-28T02:07:00;103073.03;;;14.91;nan
44349;BME280;30068;50.986;4.564;2023-02-28T02:09:25;103070.03;;;14.96;nan
44349;BME280;30068;50.986;4.564;2023-02-28T02:11:50;103067.81;;;15.02;nan
44349;BME280;30068;50.986;4.564;2023-02-28T02:19:44;103067.19;;;14.85;nan
44349;BME280;30068;50.986;4.564;2023-02-28T02:22:37;103057.59;;;14.81;nan
44349;BME280;30068;50.986;4.564;2023-02-28T02:25:25;103054.72;;;14.84;nan
44349;BME280;30068;50.986;4.564;2023-02-28T02:33:21;103055.50;;;14.86;nan
44349;BME280;30068;50.986;4.564;2023-02-28T02:38:31;103055.28;;;14.89;nan
44349;BME280;30068;50.986;4.564;2023-02-28T02:41:14;103050.03;;;14.87;nan
44349;BME280;30068;50.986;4.564;2023-02-28T02:46:49;103050.19;;;14.84;nan
44349;BME280;30068;50.986;4.564;2023-02-28T02:48:55;103050.13;;;14.86;nan
44349;BME280;30068;50.986;4.564;2023-02-28T02:51:22;103052.81;;;14.86;nan
44349;BME280;30068;50.986;4.564;2023-02-28T02:53:50;103045.84;;;14.96;nan
44349;BME280;30068;50.986;4.564;2023-02-28T02:56:17;103043.47;;;14.91;nan
44349;BME280;30068;50.986;4.564;2023-02-28T02:58:44;103047.06;;;14.78;nan
44349;BME280;30068;50.986;4.564;2023-02-28T03:01:12;103050.78;;;14.75;nan
44349;BME280;30068;50.986;4.564;2023-02-28T03:03:40;103052.59;;;14.89;nan
44349;BME280;30068;50.986;4.564;2023-02-28T03:06:06;103050.69;;;14.77;nan
44349;BME280;30068;50.986;4.564;2023-02-28T03:08:34;103055.28;;;14.89;nan
44349;BME280;30068;50.986;4.564;2023-02-28T03:11:01;103045.88;;;14.82;nan
44349;BME280;30068;50.986;4.564;2023-02-28T03:23:21;103040.09;;;14.88;nan
44349;BME280;30068;50.986;4.564;2023-02-28T03:30:51;103037.78;;;14.96;nan
44349;BME280;30068;50.986;4.564;2023-02-28T03:33:29;103051.25;;;14.82;nan
44349;BME280;30068;50.986;4.564;2023-02-28T03:36:01;103047.88;;;14.92;nan
44349;BME280;30068;50.986;4.564;2023-02-28T03:38:43;103048.63;;;14.94;nan
44349;BME280;30068;50.986;4.564;2023-02-28T03:41:20;103051.84;;;14.87;nan
44349;BME280;30068;50.986;4.564;2023-02-28T03:43:50;103048.56;;;14.82;nan
44349;BME280;30068;50.986;4.564;2023-02-28T03:46:17;103059.91;;;14.87;nan
44349;BME280;30068;50.986;4.564;2023-02-28T03:48:51;103060.88;;;14.86;nan
44349;BME280;30068;50.986;4.564;2023-02-28T03:51:17;103067.28;;;14.83;nan
44349;BME280;30068;50.986;4.564;2023-02-28T03:53:51;103067.22;;;14.71;nan
44349;BME280;30068;50.986;4.564;2023-02-28T03:56:19;103060.41;;;14.65;nan
44349;BME280;30068;50.986;4.564;2023-02-28T03:58:51;103056.56;;;14.69;nan
44349;BME280;30068;50.986;4.564;2023-02-28T04:01:20;103061.28;;;14.66;nan
44349;BME280;30068;50.986;4.564;2023-02-28T04:03:46;103058.97;;;14.74;nan
44349;BME280;30068;50.986;4.564;2023-02-28T04:06:19;103060.22;;;14.68;nan
44349;BME280;30068;50.986;4.564;2023-02-28T04:08:45;103068.47;;;14.65;nan
44349;BME280;30068;50.986;4.564;2023-02-28T04:11:18;103061.84;;;14.71;nan
44349;BME280;30068;50.986;4.564;2023-02-28T04:13:44;103070.31;;;14.65;nan
44349;BME280;30068;50.986;4.564;2023-02-28T04:16:10;103058.88;;;14.61;nan
44349;BME280;30068;50.986;4.564;2023-02-28T04:18:39;103063.22;;;14.49;nan
44349;BME280;30068;50.986;4.564;2023-02-28T04:21:05;103064.84;;;14.52;nan
44349;BME280;30068;50.986;4.564;2023-02-28T04:23:31;103062.72;;;14.57;nan
44349;BME280;30068;50.986;4.564;2023-02-28T04:25:57;103070.31;;;14.50;nan
44349;BME280;30068;50.986;4.564;2023-02-28T04:28:22;103064.72;;;14.53;nan
44349;BME280;30068;50.986;4.564;2023-02-28T04:30:47;103073.56;;;14.55;nan
44349;BME280;30068;50.986;4.564;2023-02-28T04:33:13;103063.59;;;14.57;nan
44349;BME280;30068;50.986;4.564;2023-02-28T04:35:38;103067.88;;;14.74;nan
44349;BME280;30068;50.986;4.564;2023-02-28T04:38:03;103073.63;;;14.82;nan
44349;BME280;30068;50.986;4.564;2023-02-28T04:40:28;103078.53;;;15.17;nan
44349;BME280;30068;50.986;4.564;2023-02-28T04:42:54;103078.06;;;15.10;nan
44349;BME280;30068;50.986;4.564;2023-02-28T04:45:19;103075.66;;;15.20;nan
44349;BME280;30068;50.986;4.564;2023-02-28T04:47:44;103085.06;;;15.54;nan
44349;BME280;30068;50.986;4.564;2023-02-28T04:50:10;103081.72;;;15.63;nan
44349;BME280;30068;50.986;4.564;2023-02-28T04:52:35;103079.28;;;15.85;nan
44349;BME280;30068;50.986;4.564;2023-02-28T04:55:00;103089.59;;;15.39;nan
44349;BME280;30068;50.986;4.564;2023-02-28T04:57:26;103082.50;;;15.38;nan
44349;BME280;30068;50.986;4.564;2023-02-28T04:59:51;103080.25;;;15.45;nan
44349;BME280;30068;50.986;4.564;2023-02-28T05:02:17;103083.63;;;15.88;nan
44349;BME280;30068;50.986;4.564;2023-02-28T05:04:42;103073.28;;;15.94;nan
44349;BME280;30068;50.986;4.564;2023-02-28T05:07:07;103077.44;;;15.73;nan
44349;BME280;30068;50.986;4.564;2023-02-28T05:09:32;103079.59;;;15.68;nan
44349;BME280;30068;50.986;4.564;2023-02-28T05:11:58;103077.44;;;15.60;nan
44349;BME280;30068;50.986;4.564;2023-02-28T05:14:23;103077.66;;;15.70;nan
44349;BME280;30068;50.986;4.564;2023-02-28T05:16:48;103076.59;;;15.85;nan
44349;BME280;30068;50.986;4.564;2023-02-28T05:19:14;103079.44;;;16.09;nan
44349;BME280;30068;50.986;4.564;2023-02-28T05:21:48;103073.28;;;15.94;nan
44349;BME280;30068;50.986;4.564;2023-02-28T05:24:14;103081.66;;;15.77;nan
44349;BME280;30068;50.986;4.564;2023-02-28T05:26:41;103085.63;;;15.71;nan
44349;BME280;30068;50.986;4.564;2023-02-28T05:29:07;103077.91;;;15.79;nan
44349;BME280;30068;50.986;4.564;2023-02-28T05:31:32;103083.78;;;15.72;nan
44349;BME280;30068;50.986;4.564;2023-02-28T05:33:57;103077.03;;;15.79;nan
44349;BME280;30068;50.986;4.564;2023-02-28T05:36:23;103072.53;;;16.17;nan
44349;BME280;30068;50.986;4.564;2023-02-28T05:38:48;103077.72;;;16.20;nan
44349;BME280;30068;50.986;4.564;2023-02-28T05:41:14;103076.84;;;16.07;nan
44349;BME280;30068;50.986;4.564;2023-02-28T05:43:39;103079.63;;;15.93;nan
44349;BME280;30068;50.986;4.564;2023-02-28T05:46:08;103086.50;;;15.85;nan
44349;BME280;30068;50.986;4.564;2023-02-28T05:48:34;103088.69;;;15.92;nan
44349;BME280;30068;50.986;4.564;2023-02-28T05:51:00;103090.28;;;15.82;nan
44349;BME280;30068;50.986;4.564;2023-02-28T05:53:25;103088.47;;;15.83;nan
44349;BME280;30068;50.986;4.564;2023-02-28T05:55:51;103088.91;;;16.14;nan
44349;BME280;30068;50.986;4.564;2023-02-28T05:58:16;103087.94;;;16.28;nan
44349;BME280;30068;50.986;4.564;2023-02-28T06:00:41;103092.38;;;16.16;nan
44349;BME280;30068;50.986;4.564;2023-02-28T06:03:07;103089.97;;;15.99;nan
44349;BME280;30068;50.986;4.564;2023-02-28T06:05:32;103090.84;;;15.87;nan
44349;BME280;30068;50.986;4.564;2023-02-28T06:07:58;103096.00;;;15.90;nan
44349;BME280;30068;50.986;4.564;2023-02-28T06:10:23;103095.88;;;15.92;nan
44349;BME280;30068;50.986;4.564;2023-02-28T06:12:48;103096.41;;;15.84;nan
44349;BME280;30068;50.986;4.564;2023-02-28T06:15:15;103095.59;;;16.22;nan
44349;BME280;30068;50.986;4.564;2023-02-28T06:17:40;103101.00;;;16.34;nan
44349;BME280;30068;50.986;4.564;2023-02-28T06:20:06;103105.06;;;16.02;nan
44349;BME280;30068;50.986;4.564;2023-02-28T06:22:31;103111.53;;;15.99;nan
44349;BME280;30068;50.986;4.564;2023-02-28T06:24:57;103108.09;;;16.10;nan
44349;BME280;30068;50.986;4.564;2023-02-28T06:27:22;103115.00;;;16.14;nan
44349;BME280;30068;50.986;4.564;2023-02-28T06:29:48;103112.72;;;15.95;nan
44349;BME280;30068;50.986;4.564;2023-02-28T06:32:13;103116.28;;;15.96;nan
44349;BME280;30068;50.986;4.564;2023-02-28T06:34:38;103113.81;;;16.31;nan
44349;BME280;30068;50.986;4.564;2023-02-28T06:37:03;103109.19;;;16.58;nan
44349;BME280;30068;50.986;4.564;2023-02-28T06:39:29;103110.66;;;16.11;nan
44349;BME280;30068;50.986;4.564;2023-02-28T06:41:55;103108.72;;;16.01;nan
44349;BME280;30068;50.986;4.564;2023-02-28T06:44:20;103112.00;;;16.44;nan
44349;BME280;30068;50.986;4.564;2023-02-28T06:46:46;103112.84;;;16.32;nan
44349;BME280;30068;50.986;4.564;2023-02-28T06:49:11;103109.47;;;16.53;nan
44349;BME280;30068;50.986;4.564;2023-02-28T06:51:37;103116.97;;;16.63;nan
44349;BME280;30068;50.986;4.564;2023-02-28T06:54:04;103117.81;;;16.76;nan
44349;BME280;30068;50.986;4.564;2023-02-28T06:56:29;103115.44;;;16.71;nan
44349;BME280;30068;50.986;4.564;2023-02-28T06:58:55;103117.81;;;16.76;nan
44349;BME280;30068;50.986;4.564;2023-02-28T07:01:21;103127.41;;;16.67;nan
44349;BME280;30068;50.986;4.564;2023-02-28T07:03:48;103122.66;;;16.71;nan
44349;BME280;30068;50.986;4.564;2023-02-28T07:06:17;103126.53;;;16.67;nan
44349;BME280;30068;50.986;4.564;2023-02-28T07:08:42;103126.53;;;16.67;nan
44349;BME280;30068;50.986;4.564;2023-02-28T07:11:08;103138.06;;;16.56;nan
44349;BME280;30068;50.986;4.564;2023-02-28T07:13:33;103131.06;;;16.41;nan
44349;BME280;30068;50.986;4.564;2023-02-28T07:15:59;103129.75;;;16.21;nan
44349;BME280;30068;50.986;4.564;2023-02-28T07:18:25;103133.09;;;16.25;nan
44349;BME280;30068;50.986;4.564;2023-02-28T07:20:50;103126.38;;;16.05;nan
44349;BME280;30068;50.986;4.564;2023-02-28T07:23:15;103125.94;;;15.98;nan
44349;BME280;30068;50.986;4.564;2023-02-28T07:25:41;103134.78;;;15.88;nan
44349;BME280;30068;50.986;4.564;2023-02-28T07:28:06;103123.69;;;15.92;nan
44349;BME280;30068;50.986;4.564;2023-02-28T07:30:31;103134.84;;;15.73;nan
44349;BME280;30068;50.986;4.564;2023-02-28T07:32:56;103133.22;;;15.71;nan
44349;BME280;30068;50.986;4.564;2023-02-28T07:35:22;103126.75;;;15.61;nan
44349;BME280;30068;50.986;4.564;2023-02-28T07:37:47;103124.69;;;15.64;nan
44349;BME280;30068;50.986;4.564;2023-02-28T07:40:13;103130.81;;;15.54;nan
44349;BME280;30068;50.986;4.564;2023-02-28T07:42:39;103127.38;;;15.64;nan
44349;BME280;30068;50.986;4.564;2023-02-28T07:45:05;103129.22;;;15.50;nan
44349;BME280;30068;50.986;4.564;2023-02-28T07:47:30;103128.91;;;15.41;nan
44349;BME280;30068;50.986;4.564;2023-02-28T07:49:56;103133.69;;;15.36;nan
44349;BME280;30068;50.986;4.564;2023-02-28T07:52:21;103135.16;;;15.42;nan
44349;BME280;30068;50.986;4.564;2023-02-28T07:54:48;103135.16;;;15.42;nan
44349;BME280;30068;50.986;4.564;2023-02-28T07:57:14;103136.97;;;15.41;nan
44349;BME280;30068;50.986;4.564;2023-02-28T07:59:39;103135.66;;;15.34;nan
44349;BME280;30068;50.986;4.564;2023-02-28T08:02:04;103134.56;;;15.37;nan
44349;BME280;30068;50.986;4.564;2023-02-28T08:04:31;103137.66;;;15.31;nan
44349;BME280;30068;50.986;4.564;2023-02-28T08:06:57;103129.53;;;15.18;nan
44349;BME280;30068;50.986;4.564;2023-02-28T08:09:22;103132.13;;;15.20;nan
44349;BME280;30068;50.986;4.564;2023-02-28T08:11:47;103127.56;;;15.34;nan
44349;BME280;30068;50.986;4.564;2023-02-28T08:14:13;103134.72;;;15.21;nan
44349;BME280;30068;50.986;4.564;2023-02-28T08:16:38;103124.16;;;15.18;nan
44349;BME280;30068;50.986;4.564;2023-02-28T08:19:03;103133.84;;;15.21;nan
44349;BME280;30068;50.986;4.564;2023-02-28T08:21:29;103130.59;;;15.16;nan
44349;BME280;30068;50.986;4.564;2023-02-28T08:23:54;103130.13;;;15.09;nan
44349;BME280;30068;50.986;4.564;2023-02-28T08:26:20;103129.44;;;15.47;nan
44349;BME280;30068;50.986;4.564;2023-02-28T08:28:45;103117.81;;;15.19;nan
44349;BME280;30068;50.986;4.564;2023-02-28T08:31:11;103126.69;;;15.07;nan
44349;BME280;30068;50.986;4.564;2023-02-28T08:33:38;103137.53;;;15.06;nan
44349;BME280;30068;50.986;4.564;2023-02-28T08:36:04;103136.09;;;15.00;nan
44349;BME280;30068;50.986;4.564;2023-02-28T08:38:29;103143.41;;;14.98;nan
44349;BME280;30068;50.986;4.564;2023-02-28T08:40:58;103144.66;;;14.92;nan
44349;BME280;30068;50.986;4.564;2023-02-28T08:43:24;103140.91;;;14.95;nan
44349;BME280;30068;50.986;4.564;2023-02-28T08:45:53;103141.75;;;14.95;nan
44349;BME280;30068;50.986;4.564;2023-02-28T08:48:18;103137.66;;;14.90;nan
44349;BME280;30068;50.986;4.564;2023-02-28T08:50:44;103140.16;;;14.93;nan
44349;BME280;30068;50.986;4.564;2023-02-28T08:53:09;103136.28;;;14.97;nan
44349;BME280;30068;50.986;4.564;2023-02-28T08:55:34;103139.22;;;14.80;nan
44349;BME280;30068;50.986;4.564;2023-02-28T08:57:59;103145.44;;;14.80;nan
44349;BME280;30068;50.986;4.564;2023-02-28T09:00:26;103144.97;;;14.74;nan
44349;BME280;30068;50.986;4.564;2023-02-28T09:02:51;103143.63;;;14.67;nan
44349;BME280;30068;50.986;4.564;2023-02-28T09:05:16;103143.03;;;14.76;nan
44349;BME280;30068;50.986;4.564;2023-02-28T09:07:42;103145.16;;;14.71;nan
44349;BME280;30068;50.986;4.564;2023-02-28T09:10:07;103143.50;;;14.68;nan
44349;BME280;30068;50.986;4.564;2023-02-28T09:12:33;103136.53;;;14.66;nan
44349;BME280;30068;50.986;4.564;2023-02-28T09:15:00;103145.44;;;14.80;nan
44349;BME280;30068;50.986;4.564;2023-02-28T09:17:25;103134.19;;;14.88;nan
44349;BME280;30068;50.986;4.564;2023-02-28T09:19:50;103135.53;;;14.81;nan
44349;BME280;30068;50.986;4.564;2023-02-28T09:22:15;103141.69;;;14.83;nan
44349;BME280;30068;50.986;4.564;2023-02-28T09:24:41;103133.22;;;14.75;nan
44349;BME280;30068;50.986;4.564;2023-02-28T09:27:06;103133.63;;;14.69;nan
44349;BME280;30068;50.986;4.564;2023-02-28T09:29:32;103130.38;;;14.63;nan
44349;BME280;30068;50.986;4.564;2023-02-28T09:31:58;103122.78;;;14.70;nan
44349;BME280;30068;50.986;4.564;2023-02-28T09:34:24;103122.31;;;14.63;nan
44349;BME280;30068;50.986;4.564;2023-02-28T09:36:49;103118.47;;;14.68;nan
44349;BME280;30068;50.986;4.564;2023-02-28T09:39:19;103129.22;;;14.68;nan
44349;BME280;30068;50.986;4.564;2023-02-28T09:41:44;103124.44;;;14.58;nan
44349;BME280;30068;50.986;4.564;2023-02-28T09:45:00;103122.50;;;14.60;nan
44349;BME280;30068;50.986;4.564;2023-02-28T09:47:01;103125.47;;;14.70;nan
44349;BME280;30068;50.986;4.564;2023-02-28T09:49:35;103124.91;;;14.65;nan
44349;BME280;30068;50.986;4.564;2023-02-28T09:52:04;103128.47;;;14.66;nan
44349;BME280;30068;50.986;4.564;2023-02-28T09:54:30;103131.72;;;14.56;nan
44349;BME280;30068;50.986;4.564;2023-02-28T09:56:58;103125.28;;;14.73;nan
44349;BME280;30068;50.986;4.564;2023-02-28T09:59:36;103125.56;;;14.83;nan
44349;BME280;30068;50.986;4.564;2023-02-28T10:02:19;103120.41;;;14.66;nan
44349;BME280;30068;50.986;4.564;2023-02-28T10:04:49;103126.25;;;14.72;nan
44349;BME280;30068;50.986;4.564;2023-02-28T10:07:37;103125.94;;;14.62;nan
44349;BME280;30068;50.986;4.564;2023-02-28T10:10:07;103126.25;;;14.58;nan
44349;BME280;30068;50.986;4.564;2023-02-28T10:12:40;103127.00;;;14.74;nan
44349;BME280;30068;50.986;4.564;2023-02-28T10:15:12;103125.88;;;14.64;nan
44349;BME280;30068;50.986;4.564;2023-02-28T10:17:39;103126.91;;;14.47;nan
44349;BME280;30068;50.986;4.564;2023-02-28T10:20:17;103112.72;;;14.74;nan
44349;BME280;30068;50.986;4.564;2023-02-28T10:25:28;103107.50;;;14.99;nan
44349;BME280;30068;50.986;4.564;2023-02-28T10:27:56;103108.31;;;15.14;nan
44349;BME280;30068;50.986;4.564;2023-02-28T10:30:24;103112.75;;;15.41;nan
44349;BME280;30068;50.986;4.564;2023-02-28T10:32:50;103100.50;;;15.50;nan
44349;BME280;30068;50.986;4.564;2023-02-28T10:35:23;103109.56;;;15.76;nan
44349;BME280;30068;50.986;4.564;2023-02-28T10:37:58;103099.53;;;15.51;nan
44349;BME280;30068;50.986;4.564;2023-02-28T10:45:27;103101.09;;;15.95;nan
44349;BME280;30068;50.986;4.564;2023-02-28T10:47:55;103095.97;;;15.51;nan
44349;BME280;30068;50.986;4.564;2023-02-28T10:50:28;103094.38;;;15.88;nan
44349;BME280;30068;50.986;4.564;2023-02-28T10:52:54;103094.22;;;16.03;nan
44349;BME280;30068;50.986;4.564;2023-02-28T10:55:20;103092.56;;;16.13;nan
44349;BME280;30068;50.986;4.564;2023-02-28T10:57:46;103090.75;;;16.01;nan
44349;BME280;30068;50.986;4.564;2023-02-28T11:00:22;103090.22;;;16.22;nan
44349;BME280;30068;50.986;4.564;2023-02-28T11:02:47;103088.91;;;16.14;nan
44349;BME280;30068;50.986;4.564;2023-02-28T11:07:51;103074.81;;;16.24;nan
44349;BME280;30068;50.986;4.564;2023-02-28T11:10:18;103077.09;;;16.17;nan
44349;BME280;30068;50.986;4.564;2023-02-28T11:12:44;103078.78;;;16.18;nan
44349;BME280;30068;50.986;4.564;2023-02-28T11:18:01;103072.31;;;16.33;nan
44349;BME280;30068;50.986;4.564;2023-02-28T11:20:28;103076.19;;;16.54;nan
44349;BME280;30068;50.986;4.564;2023-02-28T11:22:55;103079.63;;;16.31;nan
44349;BME280;30068;50.986;4.564;2023-02-28T11:25:22;103072.75;;;16.14;nan
44349;BME280;30068;50.986;4.564;2023-02-28T11:27:49;103071.13;;;16.25;nan
44349;BME280;30068;50.986;4.564;2023-02-28T11:32:49;103068.13;;;16.42;nan
44349;BME280;30068;50.986;4.564;2023-02-28T11:35:21;103060.88;;;16.55;nan
44349;BME280;30068;50.986;4.564;2023-02-28T11:37:48;103062.19;;;16.37;nan
44349;BME280;30068;50.986;4.564;2023-02-28T11:40:16;103067.25;;;16.29;nan
44349;BME280;30068;50.986;4.564;2023-02-28T11:47:47;103047.94;;;16.47;nan
44349;BME280;30068;50.986;4.564;2023-02-28T11:53:01;103048.78;;;16.73;nan
44349;BME280;30068;50.986;4.564;2023-02-28T11:55:32;103038.69;;;16.64;nan
44349;BME280;30068;50.986;4.564;2023-02-28T12:00:35;103038.13;;;16.46;nan
44349;BME280;30068;50.986;4.564;2023-02-28T12:03:07;103048.50;;;16.40;nan
44349;BME280;30068;50.986;4.564;2023-02-28T12:05:45;103035.66;;;16.56;nan
44349;BME280;30068;50.986;4.564;2023-02-28T12:10:52;103045.63;;;16.79;nan
44349;BME280;30068;50.986;4.564;2023-02-28T12:13:24;103041.47;;;16.50;nan
44349;BME280;30068;50.986;4.564;2023-02-28T12:16:10;103033.56;;;16.72;nan
44349;BME280;30068;50.986;4.564;2023-02-28T12:18:53;103030.69;;;16.63;nan
44349;BME280;30068;50.986;4.564;2023-02-28T12:28:47;103016.13;;;16.65;nan
44349;BME280;30068;50.986;4.564;2023-02-28T12:31:20;103012.69;;;16.63;nan
44349;BME280;30068;50.986;4.564;2023-02-28T12:34:20;103007.78;;;16.19;nan
44349;BME280;30068;50.986;4.564;2023-02-28T12:36:38;103010.44;;;13.48;nan
44349;BME280;30068;50.986;4.564;2023-02-28T12:41:47;102995.72;;;14.95;nan
44349;BME280;30068;50.986;4.564;2023-02-28T12:44:17;102995.28;;;15.55;nan
44349;BME280;30068;50.986;4.564;2023-02-28T12:46:48;102983.88;;;15.76;nan
44349;BME280;30068;50.986;4.564;2023-02-28T12:49:16;102995.06;;;15.83;nan
44349;BME280;30068;50.986;4.564;2023-02-28T12:51:42;102990.16;;;16.02;nan
44349;BME280;30068;50.986;4.564;2023-02-28T12:54:18;102981.06;;;16.29;nan
44349;BME280;30068;50.986;4.564;2023-02-28T12:56:47;102969.97;;;16.20;nan
44349;BME280;30068;50.986;4.564;2023-02-28T12:59:17;102977.16;;;16.33;nan
44349;BME280;30068;50.986;4.564;2023-02-28T13:02:00;102984.22;;;16.10;nan
44349;BME280;30068;50.986;4.564;2023-02-28T13:10:07;102978.13;;;16.44;nan
44349;BME280;30068;50.986;4.564;2023-02-28T13:12:33;102978.78;;;16.59;nan
44349;BME280;30068;50.986;4.564;2023-02-28T13:17:30;102963.41;;;16.61;nan
44349;BME280;30068;50.986;4.564;2023-02-28T13:19:59;102972.97;;;16.78;nan
44349;BME280;30068;50.986;4.564;2023-02-28T13:24:50;102967.16;;;16.95;nan
44349;BME280;30068;50.986;4.564;2023-02-28T13:27:32;102966.28;;;16.94;nan
44349;BME280;30068;50.986;4.564;2023-02-28T13:29:58;102963.41;;;17.09;nan
44349;BME280;30068;50.986;4.564;2023-02-28T13:32:33;102972.19;;;16.99;nan
44349;BME280;30068;50.986;4.564;2023-02-28T13:42:35;102968.06;;;17.07;nan
44349;BME280;30068;50.986;4.564;2023-02-28T13:47:28;102964.63;;;17.05;nan
44349;BME280;30068;50.986;4.564;2023-02-28T13:49:54;102968.88;;;16.96;nan
44349;BME280;30068;50.986;4.564;2023-02-28T13:52:41;102965.50;;;16.81;nan
44349;BME280;30068;50.986;4.564;2023-02-28T13:55:23;102972.44;;;16.96;nan
44349;BME280;30068;50.986;4.564;2023-02-28T13:57:54;102957.06;;;16.62;nan
44349;BME280;30068;50.986;4.564;2023-02-28T14:03:12;102963.97;;;17.25;nan
44349;BME280;30068;50.986;4.564;2023-02-28T14:05:43;102948.78;;;17.35;nan
44349;BME280;30068;50.986;4.564;2023-02-28T14:08:19;102960.75;;;17.20;nan
44349;BME280;30068;50.986;4.564;2023-02-28T14:10:50;102958.91;;;17.20;nan
44349;BME280;30068;50.986;4.564;2023-02-28T14:15:59;102951.97;;;17.29;nan
44349;BME280;30068;50.986;4.564;2023-02-28T14:21:08;102942.19;;;17.50;nan
44349;BME280;30068;50.986;4.564;2023-02-28T14:23:36;102947.09;;;16.75;nan
44349;BME280;30068;50.986;4.564;2023-02-28T14:29:14;102940.94;;;15.75;nan
44349;BME280;30068;50.986;4.564;2023-02-28T14:36:52;102941.84;;;16.61;nan
44349;BME280;30068;50.986;4.564;2023-02-28T14:39:25;102936.81;;;16.80;nan
44349;BME280;30068;50.986;4.564;2023-02-28T14:41:50;102943.88;;;16.70;nan
44349;BME280;30068;50.986;4.564;2023-02-28T14:44:19;102945.59;;;16.58;nan
44349;BME280;30068;50.986;4.564;2023-02-28T14:46:45;102939.31;;;16.94;nan
44349;BME280;30068;50.986;4.564;2023-02-28T14:49:57;102947.28;;;16.72;nan
44349;BME280;30068;50.986;4.564;2023-02-28T14:54:31;102941.94;;;16.59;nan
44349;BME280;30068;50.986;4.564;2023-02-28T14:56:57;102939.28;;;16.83;nan
44349;BME280;30068;50.986;4.564;2023-02-28T14:59:33;102940.38;;;17.16;nan
44349;BME280;30068;50.986;4.564;2023-02-28T15:04:43;102944.34;;;17.23;nan
44349;BME280;30068;50.986;4.564;2023-02-28T15:07:13;102937.13;;;17.34;nan
44349;BME280;30068;50.986;4.564;2023-02-28T15:09:39;102936.78;;;17.39;nan
44349;BME280;30068;50.986;4.564;2023-02-28T15:12:04;102939.13;;;17.44;nan
44349;BME280;30068;50.986;4.564;2023-02-28T15:14:29;102945.09;;;17.36;nan
44349;BME280;30068;50.986;4.564;2023-02-28T15:16:59;102944.13;;;17.26;nan
44349;BME280;30068;50.986;4.564;2023-02-28T15:19:30;102941.53;;;17.35;nan
44349;BME280;30068;50.986;4.564;2023-02-28T15:22:08;102939.41;;;17.17;nan
44349;BME280;30068;50.986;4.564;2023-02-28T15:27:06;102952.44;;;17.34;nan
44349;BME280;30068;50.986;4.564;2023-02-28T15:29:34;102942.63;;;17.22;nan
44349;BME280;30068;50.986;4.564;2023-02-28T15:32:03;102943.88;;;17.29;nan
44349;BME280;30068;50.986;4.564;2023-02-28T15:34:33;102940.78;;;17.33;nan
44349;BME280;30068;50.986;4.564;2023-02-28T15:36:59;102940.03;;;17.20;nan
44349;BME280;30068;50.986;4.564;2023-02-28T15:39:25;102939.56;;;16.91;nan
44349;BME280;30068;50.986;4.564;2023-02-28T15:41:52;102947.78;;;16.90;nan
44349;BME280;30068;50.986;4.564;2023-02-28T15:44:23;102950.53;;;16.77;nan
44349;BME280;30068;50.986;4.564;2023-02-28T15:46:57;102947.63;;;17.15;nan
44349;BME280;30068;50.986;4.564;2023-02-28T15:49:23;102937.16;;;17.46;nan
44349;BME280;30068;50.986;4.564;2023-02-28T15:51:50;102944.53;;;17.55;nan
44349;BME280;30068;50.986;4.564;2023-02-28T15:54:20;102943.81;;;17.53;nan
44349;BME280;30068;50.986;4.564;2023-02-28T15:56:47;102946.50;;;17.53;nan
44349;BME280;30068;50.986;4.564;2023-02-28T15:59:18;102950.44;;;17.60;nan
44349;BME280;30068;50.986;4.564;2023-02-28T16:01:44;102958.81;;;17.68;nan
44349;BME280;30068;50.986;4.564;2023-02-28T16:04:17;102955.25;;;17.67;nan
44349;BME280;30068;50.986;4.564;2023-02-28T16:06:43;102950.97;;;17.65;nan
44349;BME280;30068;50.986;4.564;2023-02-28T16:09:13;102958.97;;;17.66;nan
44349;BME280;30068;50.986;4.564;2023-02-28T16:11:48;102955.00;;;17.59;nan
44349;BME280;30068;50.986;4.564;2023-02-28T16:14:18;102955.75;;;17.61;nan
44349;BME280;30068;50.986;4.564;2023-02-28T16:16:45;102966.47;;;17.39;nan
44349;BME280;30068;50.986;4.564;2023-02-28T16:19:11;102964.97;;;17.35;nan
44349;BME280;30068;50.986;4.564;2023-02-28T16:21:36;102954.34;;;17.45;nan
44349;BME280;30068;50.986;4.564;2023-02-28T16:24:02;102956.50;;;17.63;nan
44349;BME280;30068;50.986;4.564;2023-02-28T16:26:27;102949.59;;;17.59;nan
44349;BME280;30068;50.986;4.564;2023-02-28T16:28:53;102953.75;;;17.52;nan
44349;BME280;30068;50.986;4.564;2023-02-28T16:31:19;102947.59;;;17.50;nan
44349;BME280;30068;50.986;4.564;2023-02-28T16:33:44;102957.94;;;15.88;nan
44349;BME280;30068;50.986;4.564;2023-02-28T16:36:14;102959.16;;;15.32;nan
44349;BME280;30068;50.986;4.564;2023-02-28T16:38:39;102955.72;;;16.18;nan
44349;BME280;30068;50.986;4.564;2023-02-28T16:41:05;102966.13;;;16.61;nan
44349;BME280;30068;50.986;4.564;2023-02-28T16:43:30;102975.16;;;16.60;nan
44349;BME280;30068;50.986;4.564;2023-02-28T16:45:56;102971.28;;;16.64;nan
44349;BME280;30068;50.986;4.564;2023-02-28T16:48:22;102966.88;;;16.87;nan
44349;BME280;30068;50.986;4.564;2023-02-28T16:50:48;102969.91;;;16.82;nan
44349;BME280;30068;50.986;4.564;2023-02-28T16:53:13;102977.09;;;16.71;nan
44349;BME280;30068;50.986;4.564;2023-02-28T16:55:38;102979.94;;;16.80;nan
44349;BME280;30068;50.986;4.564;2023-02-28T16:58:04;102977.94;;;16.95;nan